createdAt,value
2018-01-23T00:01:57.292Z,2.47
2018-01-23T00:04:25.555Z,1.80
2018-01-23T00:06:54.412Z,2.43
2018-01-23T00:09:21.930Z,2.40
2018-01-23T00:11:50.051Z,2.30
2018-01-23T00:14:18.244Z,2.97
2018-01-23T00:16:46.599Z,2.20
2018-01-23T00:19:14.097Z,2.10
2018-01-23T00:21:41.635Z,1.97
2018-01-23T00:24:09.148Z,1.73
2018-01-23T00:26:36.691Z,2.20
2018-01-23T00:29:05.013Z,2.83
2018-01-23T00:31:33.215Z,2.70
2018-01-23T00:34:01.505Z,3.30
2018-01-23T00:36:29.103Z,3.03
2018-01-23T00:38:56.680Z,2.90
2018-01-23T00:41:24.618Z,2.93
2018-01-23T00:43:52.129Z,3.50
2018-01-23T00:46:20.470Z,3.30
2018-01-23T00:48:48.580Z,3.10
2018-01-23T00:51:16.896Z,4.27
2018-01-23T00:53:44.431Z,3.63
2018-01-23T00:56:12.717Z,3.57
2018-01-23T00:58:40.606Z,3.73
2018-01-23T01:01:08.939Z,3.43
2018-01-23T01:03:37.421Z,3.93
2018-01-23T01:06:05.777Z,4.33
2018-01-23T01:08:33.324Z,4.13
2018-01-23T01:11:00.876Z,4.00
2018-01-23T01:13:28.409Z,4.50
2018-01-23T01:15:55.934Z,4.57
2018-01-23T01:18:30.513Z,3.73
2018-01-23T01:20:58.060Z,3.80
2018-01-23T01:23:25.616Z,3.77
2018-01-23T01:25:53.970Z,3.97
2018-01-23T01:28:23.540Z,4.00
2018-01-23T01:30:51.092Z,4.10
2018-01-23T01:33:18.647Z,3.30
2018-01-23T01:35:46.230Z,3.90
2018-01-23T01:38:13.788Z,4.10
2018-01-23T01:40:41.476Z,3.73
2018-01-23T01:43:09.024Z,4.20
2018-01-23T01:45:37.349Z,4.43
2018-01-23T01:48:04.873Z,4.67
2018-01-23T01:50:34.573Z,4.97
2018-01-23T01:53:02.908Z,5.03
2018-01-23T01:55:30.730Z,4.57
2018-01-23T01:57:59.035Z,4.73
2018-01-23T02:00:27.119Z,4.10
2018-01-23T02:02:54.736Z,4.53
2018-01-23T02:05:23.068Z,4.60
2018-01-23T02:07:50.640Z,4.70
2018-01-23T02:10:18.148Z,4.17
2018-01-23T02:12:46.608Z,4.47
2018-01-23T02:15:14.890Z,4.70
2018-01-23T02:17:43.428Z,5.27
2018-01-23T02:20:10.941Z,4.47
2018-01-23T02:22:38.509Z,4.20
2018-01-23T02:25:06.293Z,4.50
2018-01-23T02:27:33.844Z,4.70
2018-01-23T02:30:01.368Z,4.70
2018-01-23T02:32:31.024Z,5.30
2018-01-23T02:34:59.396Z,5.17
2018-01-23T02:37:27.391Z,5.47
2018-01-23T02:39:54.968Z,5.80
2018-01-23T02:42:22.939Z,4.70
2018-01-23T02:44:50.464Z,4.70
2018-01-23T02:47:18.000Z,4.07
2018-01-23T02:49:45.523Z,3.70
2018-01-23T02:52:13.841Z,4.30
2018-01-23T02:54:41.389Z,4.47
2018-01-23T02:57:08.935Z,4.10
2018-01-23T02:59:37.223Z,4.40
2018-01-23T03:02:04.768Z,4.17
2018-01-23T03:04:33.053Z,3.90
2018-01-23T03:07:01.369Z,3.57
2018-01-23T03:09:28.928Z,3.73
2018-01-23T03:11:57.024Z,4.27
2018-01-23T03:14:25.375Z,3.47
2018-01-23T03:16:52.938Z,3.80
2018-01-23T03:19:23.871Z,4.00
2018-01-23T03:21:51.490Z,3.83
2018-01-23T03:24:19.787Z,3.90
2018-01-23T03:26:48.147Z,4.20
2018-01-23T03:29:17.114Z,3.93
2018-01-23T03:31:44.684Z,4.20
2018-01-23T03:34:12.204Z,3.90
2018-01-23T03:36:40.172Z,3.67
2018-01-23T03:39:07.704Z,4.20
2018-01-23T03:41:35.699Z,4.30
2018-01-23T03:44:03.220Z,4.60
2018-01-23T03:46:32.427Z,3.57
2018-01-23T03:49:01.182Z,3.30
2018-01-23T03:51:28.721Z,4.00
2018-01-23T03:53:56.229Z,3.60
2018-01-23T03:56:23.760Z,3.90
2018-01-23T03:58:51.280Z,3.73
2018-01-23T04:01:18.792Z,3.80
2018-01-23T04:03:47.104Z,3.57
2018-01-23T04:06:14.647Z,4.27
2018-01-23T04:08:42.166Z,3.90
2018-01-23T04:11:09.722Z,3.67
2018-01-23T04:13:38.944Z,4.10
2018-01-23T04:16:07.459Z,4.10
2018-01-23T04:18:35.007Z,4.13
2018-01-23T04:21:02.701Z,3.50
2018-01-23T04:23:30.220Z,3.33
2018-01-23T04:25:57.748Z,4.37
2018-01-23T04:28:26.782Z,3.73
2018-01-23T04:30:54.339Z,3.77
2018-01-23T04:33:22.034Z,4.07
2018-01-23T04:35:50.258Z,4.60
2018-01-23T04:38:18.956Z,4.03
2018-01-23T04:40:47.248Z,4.30
2018-01-23T04:43:15.568Z,3.67
2018-01-23T04:45:43.131Z,3.97
2018-01-23T04:48:10.681Z,3.57
2018-01-23T04:50:38.241Z,4.80
2018-01-23T04:53:06.479Z,3.47
2018-01-23T04:55:34.024Z,4.60
2018-01-23T04:58:02.341Z,3.43
2018-01-23T05:00:29.861Z,3.63
2018-01-23T05:02:58.376Z,3.57
2018-01-23T05:05:27.630Z,3.90
2018-01-23T05:07:55.912Z,3.47
2018-01-23T05:10:24.341Z,3.77
2018-01-23T05:12:51.936Z,3.67
2018-01-23T05:15:20.689Z,3.80
2018-01-23T05:17:48.408Z,3.90
2018-01-23T05:20:16.743Z,4.03
2018-01-23T05:22:44.278Z,3.80
2018-01-23T05:25:11.820Z,3.63
2018-01-23T05:27:39.571Z,3.73
2018-01-23T05:30:07.936Z,3.97
2018-01-23T05:32:36.224Z,4.07
2018-01-23T05:35:03.796Z,3.13
2018-01-23T05:37:31.566Z,2.93
2018-01-23T05:39:59.104Z,3.40
2018-01-23T05:42:27.401Z,3.90
2018-01-23T05:44:56.223Z,3.37
2018-01-23T05:47:23.767Z,3.47
2018-01-23T05:49:51.381Z,3.50
2018-01-23T05:52:18.989Z,3.63
2018-01-23T05:54:46.548Z,3.80
2018-01-23T05:57:14.202Z,3.93
2018-01-23T05:59:41.721Z,3.23
2018-01-23T06:02:10.482Z,4.30
2018-01-23T06:04:38.193Z,3.07
2018-01-23T06:07:05.917Z,3.23
2018-01-23T06:09:33.651Z,3.20
2018-01-23T06:12:01.203Z,3.43
2018-01-23T06:14:28.842Z,3.63
2018-01-23T06:16:56.432Z,3.20
2018-01-23T06:19:24.860Z,3.53
2018-01-23T06:21:53.148Z,3.43
2018-01-23T06:24:22.176Z,3.60
2018-01-23T06:26:49.732Z,3.37
2018-01-23T06:29:17.731Z,3.57
2018-01-23T06:31:45.254Z,3.43
2018-01-23T06:34:12.776Z,3.27
2018-01-23T06:36:41.532Z,3.60
2018-01-23T06:39:09.079Z,3.23
2018-01-23T06:41:36.629Z,3.40
2018-01-23T06:44:04.176Z,3.60
2018-01-23T06:46:31.872Z,4.43
2018-01-23T06:48:59.876Z,4.27
2018-01-23T06:51:28.073Z,3.93
2018-01-23T06:53:55.660Z,4.47
2018-01-23T06:56:23.813Z,4.27
2018-01-23T06:58:51.456Z,3.97
2018-01-23T07:01:18.997Z,3.57
2018-01-23T07:03:47.866Z,3.87
2018-01-23T07:06:16.157Z,3.70
2018-01-23T07:08:43.727Z,3.67
2018-01-23T07:11:12.430Z,4.03
2018-01-23T07:13:40.709Z,4.17
2018-01-23T07:16:09.421Z,4.07
2018-01-23T07:18:36.968Z,3.90
2018-01-23T07:21:04.509Z,4.13
2018-01-23T07:23:33.608Z,4.43
2018-01-23T07:26:02.845Z,4.00
2018-01-23T07:28:30.398Z,4.27
2018-01-23T07:30:57.911Z,4.00
2018-01-23T07:33:26.236Z,3.93
2018-01-23T07:35:54.681Z,3.90
2018-01-23T07:38:22.989Z,3.93
2018-01-23T07:40:50.539Z,3.70
2018-01-23T07:43:18.302Z,3.50
2018-01-23T07:45:45.844Z,4.00
2018-01-23T07:48:14.153Z,4.53
2018-01-23T07:50:41.700Z,3.70
2018-01-23T07:53:10.068Z,3.60
2018-01-23T07:55:37.600Z,4.07
2018-01-23T07:58:05.912Z,4.03
2018-01-23T08:00:34.953Z,3.87
2018-01-23T08:03:02.466Z,4.33
2018-01-23T08:05:31.161Z,4.13
2018-01-23T08:07:59.400Z,3.50
2018-01-23T08:10:26.950Z,3.40
2018-01-23T08:12:55.274Z,3.40
2018-01-23T08:15:22.841Z,2.80
2018-01-23T08:17:50.376Z,3.57
2018-01-23T08:20:17.919Z,3.90
2018-01-23T08:22:46.252Z,3.70
2018-01-23T08:25:13.818Z,4.03
2018-01-23T08:27:41.339Z,4.50
2018-01-23T08:30:09.550Z,3.90
2018-01-23T08:32:37.072Z,4.20
2018-01-23T08:35:04.594Z,4.30
2018-01-23T08:37:32.172Z,3.93
2018-01-23T08:40:00.528Z,4.97
2018-01-23T08:42:28.828Z,5.43
2018-01-23T08:44:57.120Z,5.57
2018-01-23T08:47:25.500Z,4.60
2018-01-23T08:49:53.048Z,5.40
2018-01-23T08:52:21.135Z,5.67
2018-01-23T08:57:51.564Z,4.83
2018-01-23T09:00:19.104Z,5.47
2018-01-23T09:02:47.179Z,6.03
2018-01-23T09:05:14.745Z,5.40
2018-01-23T09:07:42.264Z,5.63
2018-01-23T09:10:09.839Z,5.10
2018-01-23T09:12:38.115Z,4.97
2018-01-23T09:15:06.416Z,4.70
2018-01-23T09:17:33.952Z,4.80
2018-01-23T09:20:02.257Z,5.07
2018-01-23T09:22:30.560Z,4.93
2018-01-23T09:24:58.097Z,4.70
2018-01-23T09:27:25.647Z,5.03
2018-01-23T09:29:53.924Z,4.67
2018-01-23T09:32:21.435Z,4.93
2018-01-23T09:34:49.768Z,4.80
2018-01-23T09:37:23.759Z,5.17
2018-01-23T09:39:52.031Z,4.80
2018-01-23T09:42:21.095Z,4.17
2018-01-23T09:44:48.654Z,4.60
2018-01-23T09:47:16.251Z,5.30
2018-01-23T09:49:44.540Z,4.83
2018-01-23T09:52:12.055Z,4.70
2018-01-23T09:54:39.590Z,5.50
2018-01-23T09:57:07.136Z,5.10
2018-01-23T09:59:36.579Z,5.50
2018-01-23T10:02:04.091Z,5.10
2018-01-23T10:04:31.604Z,5.60
2018-01-23T10:06:59.915Z,5.67
2018-01-23T10:09:27.450Z,5.90
2018-01-23T10:11:55.744Z,5.70
2018-01-23T10:14:23.264Z,4.87
2018-01-23T10:16:50.800Z,4.77
2018-01-23T10:19:18.763Z,5.03
2018-01-23T10:21:46.273Z,5.37
2018-01-23T10:24:14.572Z,5.67
2018-01-23T10:26:42.079Z,5.40
2018-01-23T10:29:28.244Z,5.30
2018-01-23T10:31:57.914Z,5.93
2018-01-23T10:34:26.230Z,5.10
2018-01-23T10:36:54.093Z,5.03
2018-01-23T10:39:21.600Z,5.33
2018-01-23T10:41:49.165Z,5.63
2018-01-23T10:44:17.896Z,6.17
2018-01-23T10:46:45.855Z,6.13
2018-01-23T10:49:13.390Z,5.40
2018-01-23T10:51:41.668Z,5.57
2018-01-23T10:54:10.411Z,5.80
2018-01-23T10:56:38.055Z,6.80
2018-01-23T10:59:06.635Z,5.57
2018-01-23T11:01:39.784Z,5.57
2018-01-23T11:04:08.566Z,5.40
2018-01-23T11:06:37.168Z,5.50
2018-01-23T11:09:06.035Z,5.20
2018-01-23T11:11:33.720Z,5.57
2018-01-23T11:14:02.028Z,5.50
2018-01-23T11:16:29.531Z,5.70
2018-01-23T11:18:57.055Z,5.03
2018-01-23T11:21:24.575Z,5.90
2018-01-23T11:23:52.871Z,6.40
2018-01-23T11:26:20.419Z,4.97
2018-01-23T11:28:47.959Z,5.33
2018-01-23T11:31:16.283Z,5.27
2018-01-23T11:33:43.799Z,5.03
2018-01-23T11:36:12.153Z,5.33
2018-01-23T11:38:39.745Z,5.60
2018-01-23T11:41:07.272Z,5.20
2018-01-23T11:43:34.812Z,5.77
2018-01-23T11:46:02.460Z,5.33
2018-01-23T11:48:29.986Z,5.37
2018-01-23T11:50:58.270Z,4.87
2018-01-23T11:53:25.814Z,5.47
2018-01-23T11:55:54.092Z,5.90
2018-01-23T11:58:22.719Z,4.60
2018-01-23T12:00:50.260Z,5.10
2018-01-23T12:03:17.767Z,5.07
2018-01-23T12:05:45.707Z,4.33
2018-01-23T12:08:13.680Z,4.67
2018-01-23T12:10:41.237Z,4.70
2018-01-23T12:13:08.747Z,4.73
2018-01-23T12:15:37.054Z,4.87
2018-01-23T12:18:04.563Z,4.47
2018-01-23T12:20:32.069Z,4.33
2018-01-23T12:22:59.586Z,4.97
2018-01-23T12:25:27.131Z,4.33
2018-01-23T12:27:54.648Z,5.20
2018-01-23T12:30:22.183Z,4.67
2018-01-23T12:32:50.490Z,4.80
2018-01-23T12:35:18.595Z,4.27
2018-01-23T12:37:46.119Z,4.77
2018-01-23T12:40:14.712Z,5.93
2018-01-23T12:42:42.262Z,4.67
2018-01-23T12:45:09.843Z,5.00
2018-01-23T12:47:37.389Z,4.80
2018-01-23T12:50:09.002Z,4.80
2018-01-23T12:52:37.288Z,4.80
2018-01-23T12:55:05.559Z,5.10
2018-01-23T12:57:33.867Z,4.07
2018-01-23T13:00:01.415Z,4.87
2018-01-23T13:02:28.940Z,4.23
2018-01-23T13:04:56.491Z,3.93
2018-01-23T13:07:24.030Z,3.83
2018-01-23T13:09:51.543Z,4.77
2018-01-23T13:12:19.082Z,4.40
2018-01-23T13:14:47.403Z,4.17
2018-01-23T13:17:14.912Z,4.67
2018-01-23T13:19:43.367Z,3.90
2018-01-23T13:22:11.656Z,4.00
2018-01-23T13:24:39.170Z,4.23
2018-01-23T13:27:06.707Z,3.80
2018-01-23T13:29:34.977Z,3.90
2018-01-23T13:32:03.403Z,4.27
2018-01-23T13:34:30.939Z,4.20
2018-01-23T13:36:58.468Z,3.80
2018-01-23T13:39:26.764Z,3.80
2018-01-23T13:41:54.302Z,3.50
2018-01-23T13:44:22.575Z,3.47
2018-01-23T13:46:50.088Z,3.60
2018-01-23T13:49:17.644Z,3.50
2018-01-23T13:51:45.386Z,3.90
2018-01-23T13:54:12.903Z,4.23
2018-01-23T13:56:40.411Z,3.70
2018-01-23T13:59:07.919Z,4.37
2018-01-23T14:01:35.775Z,3.97
2018-01-23T14:04:03.880Z,4.37
2018-01-23T14:06:32.151Z,4.10
2018-01-23T14:09:00.431Z,4.30
2018-01-23T14:11:28.738Z,4.70
2018-01-23T14:13:56.275Z,4.00
2018-01-23T14:16:24.586Z,3.37
2018-01-23T14:18:54.127Z,3.80
2018-01-23T14:21:21.815Z,4.30
2018-01-23T14:23:50.128Z,3.50
2018-01-23T14:26:17.640Z,4.17
2018-01-23T14:28:45.596Z,3.83
2018-01-23T14:31:13.099Z,4.00
2018-01-23T14:33:40.615Z,4.20
2018-01-23T14:36:08.340Z,4.20
2018-01-23T14:38:35.856Z,3.17
2018-01-23T14:41:04.345Z,3.70
2018-01-23T14:43:32.657Z,4.00
2018-01-23T14:46:00.304Z,3.50
2018-01-23T14:48:27.835Z,4.03
2018-01-23T14:50:56.151Z,3.77
2018-01-23T14:53:23.699Z,3.80
2018-01-23T14:55:51.231Z,4.73
2018-01-23T14:58:18.820Z,3.97
2018-01-23T15:00:46.362Z,3.83
2018-01-23T15:03:14.661Z,4.30
2018-01-23T15:05:42.329Z,4.63
2018-01-23T15:08:09.946Z,4.30
2018-01-23T15:10:38.265Z,4.37
2018-01-23T15:13:06.235Z,4.33
2018-01-23T15:15:34.706Z,3.93
2018-01-23T15:18:02.235Z,4.10
2018-01-23T15:20:30.951Z,4.33
2018-01-23T15:22:58.471Z,4.60
2018-01-23T15:25:26.011Z,4.60
2018-01-23T15:27:53.528Z,5.20
2018-01-23T15:30:21.074Z,5.50
2018-01-23T15:32:49.379Z,5.73
2018-01-23T15:35:17.776Z,5.50
2018-01-23T15:37:45.363Z,6.57
2018-01-23T15:40:12.895Z,5.73
2018-01-23T15:42:40.423Z,6.03
2018-01-23T15:45:07.975Z,5.47
2018-01-23T15:47:35.508Z,5.93
2018-01-23T15:50:03.013Z,5.93
2018-01-23T15:52:30.539Z,6.60
2018-01-23T15:54:59.291Z,6.13
2018-01-23T15:57:26.803Z,6.30
2018-01-23T15:59:54.327Z,6.10
2018-01-23T16:02:22.415Z,6.40
2018-01-23T16:04:50.863Z,5.43
2018-01-23T16:07:18.371Z,5.37
2018-01-23T16:09:45.907Z,5.83
2018-01-23T16:12:13.686Z,6.17
2018-01-23T16:14:41.989Z,5.33
2018-01-23T16:17:09.520Z,5.57
2018-01-23T16:19:37.832Z,5.00
2018-01-23T16:22:06.147Z,4.67
2018-01-23T16:27:08.285Z,4.63
2018-01-23T16:29:35.791Z,4.83
2018-01-23T16:32:03.340Z,4.70
2018-01-23T16:34:31.291Z,4.33
2018-01-23T16:36:58.801Z,4.00
2018-01-23T16:39:27.082Z,4.77
2018-01-23T16:41:55.571Z,4.23
2018-01-23T16:44:23.117Z,4.23
2018-01-23T16:46:51.423Z,4.83
2018-01-23T16:49:19.484Z,5.57
2018-01-23T16:51:47.367Z,5.80
2018-01-23T16:54:14.899Z,5.33
2018-01-23T16:56:43.204Z,5.60
2018-01-23T16:59:10.739Z,5.07
2018-01-23T17:01:39.033Z,5.67
2018-01-23T17:04:06.571Z,5.37
2018-01-23T17:06:34.852Z,5.20
2018-01-23T17:09:03.287Z,5.57
2018-01-23T17:11:30.912Z,5.77
2018-01-23T17:13:58.448Z,5.27
2018-01-23T17:16:27.323Z,6.17
2018-01-23T17:18:55.606Z,5.93
2018-01-23T17:21:23.914Z,6.60
2018-01-23T17:23:51.456Z,5.67
2018-01-23T17:26:18.976Z,6.83
2018-01-23T17:28:46.523Z,5.73
2018-01-23T17:31:14.598Z,5.87
2018-01-23T17:33:42.256Z,6.17
2018-01-23T17:36:10.503Z,5.23
2018-01-23T17:38:38.462Z,5.73
2018-01-23T17:41:05.972Z,6.33
2018-01-23T17:43:33.482Z,7.37
2018-01-23T17:46:01.335Z,6.83
2018-01-23T17:48:29.607Z,6.00
2018-01-23T17:50:58.915Z,5.77
2018-01-23T17:53:26.435Z,6.23
2018-01-23T17:55:53.950Z,6.83
2018-01-23T17:58:22.504Z,7.27
2018-01-23T18:00:50.811Z,6.47
2018-01-23T18:03:18.327Z,5.63
2018-01-23T18:05:46.604Z,4.87
2018-01-23T18:08:14.915Z,6.10
2018-01-23T18:10:42.732Z,5.10
2018-01-23T18:13:10.282Z,4.90
2018-01-23T18:15:37.823Z,5.03
2018-01-23T18:18:05.356Z,5.63
2018-01-23T18:20:37.190Z,4.30
2018-01-23T18:23:05.463Z,4.93
2018-01-23T18:25:34.089Z,4.23
2018-01-23T18:28:01.607Z,5.67
2018-01-23T18:30:30.892Z,4.50
2018-01-23T18:32:58.431Z,4.53
2018-01-23T18:35:25.971Z,4.37
2018-01-23T18:37:53.526Z,4.03
2018-01-23T18:40:21.030Z,4.10
2018-01-23T18:42:48.567Z,3.87
2018-01-23T18:45:16.511Z,4.00
2018-01-23T18:47:45.005Z,4.57
2018-01-23T18:50:12.519Z,4.30
2018-01-23T18:52:40.825Z,4.00
2018-01-23T18:55:08.327Z,3.70
2018-01-23T18:57:35.870Z,4.17
2018-01-23T19:00:03.376Z,4.57
2018-01-23T19:02:30.904Z,4.57
2018-01-23T19:04:58.420Z,4.87
2018-01-23T19:07:25.932Z,4.00
2018-01-23T19:09:53.456Z,4.10
2018-01-23T19:12:20.967Z,4.50
2018-01-23T19:14:49.291Z,4.07
2018-01-23T19:17:16.809Z,3.60
2018-01-23T19:19:45.128Z,4.03
2018-01-23T19:22:12.655Z,3.63
2018-01-23T19:24:40.963Z,3.27
2018-01-23T19:27:08.509Z,3.17
2018-01-23T19:29:36.044Z,3.30
2018-01-23T19:32:04.318Z,3.40
2018-01-23T19:34:33.135Z,3.17
2018-01-23T19:37:00.652Z,3.03
2018-01-23T19:39:31.431Z,3.33
2018-01-23T19:41:58.957Z,3.23
2018-01-23T19:44:27.244Z,3.80
2018-01-23T19:46:54.790Z,3.37
2018-01-23T19:49:23.303Z,4.07
2018-01-23T19:51:50.843Z,4.60
2018-01-23T19:54:18.383Z,4.33
2018-01-23T19:56:46.755Z,3.80
2018-01-23T19:59:14.276Z,4.00
2018-01-23T20:01:41.788Z,3.87
2018-01-23T20:04:13.225Z,4.10
2018-01-23T20:06:41.541Z,3.77
2018-01-23T20:09:09.075Z,3.50
2018-01-23T20:11:37.357Z,3.90
2018-01-23T20:14:05.672Z,4.23
2018-01-23T20:16:33.191Z,4.00
2018-01-23T20:19:01.467Z,3.57
2018-01-23T20:21:29.922Z,4.20
2018-01-23T20:23:57.445Z,4.30
2018-01-23T20:26:25.006Z,4.43
2018-01-23T20:28:53.579Z,4.70
2018-01-23T20:31:21.132Z,4.77
2018-01-23T20:33:49.570Z,5.00
2018-01-23T20:36:17.865Z,5.10
2018-01-23T20:38:46.144Z,5.07
2018-01-23T20:41:15.145Z,4.80
2018-01-23T20:43:43.098Z,5.07
2018-01-23T20:46:11.407Z,5.70
2018-01-23T20:48:38.916Z,5.37
2018-01-23T20:51:06.475Z,5.20
2018-01-23T20:53:34.673Z,5.53
2018-01-23T20:56:02.799Z,5.20
2018-01-23T20:58:30.729Z,5.30
2018-01-23T21:00:58.267Z,4.90
2018-01-23T21:03:26.579Z,4.90
2018-01-23T21:05:54.119Z,4.30
2018-01-23T21:08:21.682Z,4.67
2018-01-23T21:10:49.535Z,4.57
2018-01-23T21:13:18.185Z,4.43
2018-01-23T21:15:45.738Z,4.10
2018-01-23T21:18:13.852Z,4.20
2018-01-23T21:20:42.132Z,3.97
2018-01-23T21:23:10.418Z,4.40
2018-01-23T21:25:38.504Z,4.03
2018-01-23T21:28:06.082Z,3.37
2018-01-23T21:30:35.586Z,4.47
2018-01-23T21:33:03.141Z,3.37
2018-01-23T21:35:31.414Z,3.40
2018-01-23T21:37:59.123Z,3.90
2018-01-23T21:40:28.011Z,4.03
2018-01-23T21:42:58.619Z,4.00
2018-01-23T21:45:26.140Z,3.57
2018-01-23T21:47:53.968Z,3.37
2018-01-23T21:50:21.524Z,3.23
2018-01-23T21:52:49.036Z,3.50
2018-01-23T21:55:16.563Z,3.83
2018-01-23T21:57:46.022Z,4.03
2018-01-23T22:00:13.803Z,3.17
2018-01-23T22:02:41.343Z,4.10
2018-01-23T22:05:08.887Z,3.93
2018-01-23T22:07:37.411Z,3.23
2018-01-23T22:10:06.279Z,3.73
2018-01-23T22:12:35.145Z,3.17
2018-01-23T22:15:02.677Z,4.10
2018-01-23T22:17:30.979Z,3.63
2018-01-23T22:19:58.515Z,3.70
2018-01-23T22:22:27.584Z,3.07
2018-01-23T22:24:55.126Z,4.07
2018-01-23T22:27:23.255Z,3.47
2018-01-23T22:29:51.142Z,4.07
2018-01-23T22:32:18.651Z,4.00
2018-01-23T22:34:46.183Z,3.47
2018-01-23T22:37:13.713Z,3.80
2018-01-23T22:39:42.263Z,3.30
2018-01-23T22:42:10.576Z,3.47
2018-01-23T22:44:38.088Z,3.10
2018-01-23T22:47:06.411Z,3.30
2018-01-23T22:49:33.955Z,3.10
2018-01-23T22:52:01.495Z,3.13
2018-01-23T22:54:30.321Z,3.33
2018-01-23T22:56:57.835Z,3.20
2018-01-23T22:59:26.683Z,3.30
2018-01-23T23:01:54.190Z,3.70
2018-01-23T23:04:22.498Z,3.60
2018-01-23T23:06:50.010Z,2.90
2018-01-23T23:09:17.556Z,3.23
2018-01-23T23:11:45.095Z,3.43
2018-01-23T23:14:12.604Z,3.30
2018-01-23T23:16:40.880Z,4.07
2018-01-23T23:19:09.185Z,3.03
2018-01-23T23:21:36.715Z,3.20
2018-01-23T23:24:05.028Z,3.27
2018-01-23T23:26:32.558Z,3.03
2018-01-23T23:29:00.861Z,3.20
2018-01-23T23:31:28.951Z,3.10
2018-01-23T23:33:57.647Z,3.70
2018-01-23T23:36:25.869Z,3.80
2018-01-23T23:38:54.585Z,3.90
2018-01-23T23:41:22.514Z,4.00
2018-01-23T23:43:51.336Z,4.20
2018-01-23T23:46:18.876Z,4.57
2018-01-23T23:48:47.172Z,3.60
2018-01-23T23:51:14.685Z,4.13
2018-01-23T23:53:42.223Z,4.37
2018-01-23T23:56:10.445Z,3.87
2018-01-23T23:58:39.714Z,3.93
